createdAt,value
2022-09-01T00:00:03.059Z,63.40
2022-09-01T00:02:32.525Z,63.50
2022-09-01T00:04:59.963Z,63.50
2022-09-01T00:07:32.854Z,63.50
2022-09-01T00:10:00.001Z,63.50
2022-09-01T00:12:29.963Z,62.80
2022-09-01T00:15:00.314Z,64.10
2022-09-01T00:17:27.896Z,63.50
2022-09-01T00:19:55.355Z,63.20
2022-09-01T00:22:22.628Z,63.50
2022-09-01T00:24:49.793Z,63.50
2022-09-01T00:27:16.917Z,63.50
2022-09-01T00:29:45.228Z,63.40
2022-09-01T00:32:12.436Z,64.10
2022-09-01T00:34:39.897Z,64.10
2022-09-01T00:37:07.387Z,63.70
2022-09-01T00:39:34.619Z,63.90
2022-09-01T00:42:04.950Z,63.70
2022-09-01T00:44:36.687Z,63.50
2022-09-01T00:47:07.123Z,63.90
2022-09-01T00:49:40.458Z,63.80
2022-09-01T00:52:12.146Z,64.10
2022-09-01T00:54:42.070Z,63.60
2022-09-01T00:57:09.283Z,63.60
2022-09-01T00:59:36.731Z,63.60
2022-09-01T01:02:04.194Z,63.60
2022-09-01T01:04:33.817Z,63.30
2022-09-01T01:07:04.059Z,63.60
2022-09-01T01:09:32.558Z,63.60
2022-09-01T01:12:03.182Z,64.20
2022-09-01T01:14:32.459Z,63.40
2022-09-01T01:17:03.671Z,63.10
2022-09-01T01:19:55.379Z,63.60
2022-09-01T01:23:05.951Z,63.60
2022-09-01T01:25:38.425Z,63.80
2022-09-01T01:28:23.300Z,63.60
2022-09-01T01:30:55.035Z,63.50
2022-09-01T01:33:25.542Z,63.70
2022-09-01T01:35:53.265Z,63.80
2022-09-01T01:38:23.582Z,63.80
2022-09-01T01:40:54.069Z,63.60
2022-09-01T01:43:23.387Z,64.60
2022-09-01T01:45:52.647Z,63.80
2022-09-01T01:48:24.776Z,64.10
2022-09-01T01:50:53.083Z,63.90
2022-09-01T01:53:20.406Z,64.40
2022-09-01T01:55:50.019Z,64.00
2022-09-01T01:58:20.123Z,64.20
2022-09-01T02:00:49.124Z,64.10
2022-09-01T02:03:19.248Z,64.30
2022-09-01T02:05:47.849Z,64.50
2022-09-01T02:08:15.812Z,64.90
2022-09-01T02:10:45.035Z,64.90
2022-09-01T02:13:16.582Z,65.50
2022-09-01T02:16:14.127Z,65.40
2022-09-01T02:18:48.162Z,66.10
2022-09-01T02:21:19.751Z,65.40
2022-09-01T02:23:48.602Z,65.80
2022-09-01T02:26:17.449Z,65.90
2022-09-01T02:28:54.785Z,65.80
2022-09-01T02:31:28.055Z,66.20
2022-09-01T02:33:56.560Z,65.80
2022-09-01T02:36:25.828Z,65.70
2022-09-01T02:38:56.375Z,66.20
2022-09-01T02:41:25.417Z,66.00
2022-09-01T02:43:54.308Z,66.00
2022-09-01T02:46:24.584Z,66.50
2022-09-01T02:48:52.842Z,66.50
2022-09-01T02:51:22.670Z,66.40
2022-09-01T02:53:52.870Z,66.50
2022-09-01T02:56:25.254Z,66.40
2022-09-01T02:58:54.145Z,67.50
2022-09-01T03:01:25.685Z,66.70
2022-09-01T03:03:55.537Z,66.80
2022-09-01T03:06:24.492Z,67.00
2022-09-01T03:08:53.423Z,67.30
2022-09-01T03:11:20.945Z,67.50
2022-09-01T03:13:48.139Z,67.60
2022-09-01T03:16:16.321Z,67.60
2022-09-01T03:18:44.465Z,68.10
2022-09-01T03:21:16.235Z,68.40
2022-09-01T03:23:45.493Z,68.30
2022-09-01T03:26:13.310Z,68.70
2022-09-01T03:28:40.707Z,69.00
2022-09-01T03:31:09.239Z,69.60
2022-09-01T03:33:36.958Z,70.00
2022-09-01T03:36:08.392Z,70.20
2022-09-01T03:38:44.264Z,70.80
2022-09-01T03:41:13.526Z,71.10
2022-09-01T03:43:45.833Z,72.30
2022-09-01T03:46:22.042Z,71.60
2022-09-01T03:48:51.072Z,71.10
2022-09-01T03:51:19.877Z,70.90
2022-09-01T03:53:47.469Z,71.40
2022-09-01T03:56:15.386Z,72.10
2022-09-01T03:58:47.288Z,73.50
2022-09-01T04:01:17.737Z,72.70
2022-09-01T04:03:47.682Z,73.80
2022-09-01T04:06:19.625Z,73.70
2022-09-01T04:08:47.321Z,73.70
2022-09-01T04:11:19.013Z,74.40
2022-09-01T04:13:48.602Z,74.70
2022-09-01T04:16:43.050Z,74.30
2022-09-01T04:19:20.632Z,74.40
2022-09-01T04:21:50.643Z,74.20
2022-09-01T04:24:23.459Z,74.50
2022-09-01T04:26:52.198Z,74.70
2022-09-01T04:29:19.920Z,74.00
2022-09-01T04:31:52.187Z,74.20
2022-09-01T04:34:24.275Z,74.30
2022-09-01T04:36:57.005Z,73.90
2022-09-01T04:39:24.713Z,74.20
2022-09-01T04:41:52.747Z,74.20
2022-09-01T04:44:20.323Z,74.80
2022-09-01T04:46:48.490Z,74.20
2022-09-01T04:49:19.731Z,73.90
2022-09-01T04:51:53.266Z,74.70
2022-09-01T04:54:21.939Z,74.40
2022-09-01T04:56:52.862Z,74.20
2022-09-01T04:59:22.218Z,74.30
2022-09-01T05:01:57.776Z,74.40
2022-09-01T05:04:27.848Z,74.70
2022-09-01T05:07:01.667Z,75.60
2022-09-01T05:09:38.603Z,75.00
2022-09-01T05:12:17.102Z,76.40
2022-09-01T05:14:48.900Z,75.40
2022-09-01T05:17:19.089Z,76.10
2022-09-01T05:19:48.923Z,75.30
2022-09-01T05:22:17.890Z,75.50
2022-09-01T05:24:55.295Z,75.50
2022-09-01T05:27:23.944Z,75.60
2022-09-01T05:29:51.112Z,75.60
2022-09-01T05:32:18.570Z,75.30
2022-09-01T05:34:46.339Z,74.60
2022-09-01T05:37:16.181Z,74.80
2022-09-01T05:39:43.535Z,74.30
2022-09-01T05:42:11.497Z,74.30
2022-09-01T05:44:44.308Z,74.10
2022-09-01T05:47:20.370Z,74.20
2022-09-01T05:49:50.395Z,74.30
2022-09-01T05:52:17.745Z,74.10
2022-09-01T05:54:48.136Z,74.30
2022-09-01T05:57:33.846Z,74.00
2022-09-01T06:00:12.394Z,74.30
2022-09-01T06:02:43.328Z,74.00
2022-09-01T06:05:16.424Z,74.00
2022-09-01T06:07:46.129Z,73.70
2022-09-01T06:10:14.879Z,73.80
2022-09-01T06:12:45.373Z,73.80
2022-09-01T06:15:18.854Z,73.60
2022-09-01T06:17:50.503Z,73.20
2022-09-01T06:20:19.122Z,73.10
2022-09-01T06:22:47.898Z,72.90
2022-09-01T06:25:18.684Z,72.70
2022-09-01T06:27:48.426Z,72.60
2022-09-01T06:30:23.867Z,72.60
2022-09-01T06:33:13.839Z,72.70
2022-09-01T06:35:45.100Z,72.40
2022-09-01T06:38:12.743Z,72.00
2022-09-01T06:40:43.695Z,72.20
2022-09-01T06:43:14.105Z,71.90
2022-09-01T06:45:49.987Z,71.40
2022-09-01T06:48:18.481Z,71.10
2022-09-01T06:53:57.432Z,70.30
2022-09-01T06:56:32.269Z,70.00
2022-09-01T06:59:04.402Z,69.90
2022-09-01T07:01:39.008Z,69.60
2022-09-01T07:13:19.017Z,68.30
2022-09-01T07:18:44.670Z,68.20
2022-09-01T07:24:18.425Z,68.10
2022-09-01T07:27:11.330Z,67.80
2022-09-01T07:29:41.652Z,67.40
2022-09-01T07:38:48.415Z,66.60
2022-09-01T07:42:31.249Z,68.60
2022-09-01T07:42:57.915Z,69.30
2022-09-01T07:43:45.539Z,65.50
2022-09-01T07:46:40.332Z,64.90
2022-09-01T07:50:07.993Z,64.30
2022-09-01T07:52:07.451Z,63.60
2022-09-01T07:54:37.621Z,63.10
2022-09-01T07:57:05.609Z,63.30
2022-09-01T07:59:36.630Z,63.60
2022-09-01T08:02:16.100Z,63.40
2022-09-01T08:04:43.941Z,63.40
2022-09-01T08:07:15.452Z,63.50
2022-09-01T08:09:44.428Z,63.30
2022-09-01T08:12:13.420Z,62.30
2022-09-01T08:14:47.143Z,61.40
2022-09-01T08:17:33.096Z,60.90
2022-09-01T08:20:10.773Z,60.20
2022-09-01T08:23:07.386Z,60.20
2022-09-01T08:25:39.945Z,60.20
2022-09-01T08:28:07.905Z,60.10
2022-09-01T08:30:49.180Z,60.10
2022-09-01T08:33:26.160Z,60.00
2022-09-01T08:35:54.497Z,60.70
2022-09-01T08:38:26.051Z,61.40
2022-09-01T08:40:57.053Z,60.80
2022-09-01T08:43:45.307Z,61.10
2022-09-01T08:46:35.254Z,61.20
2022-09-01T08:52:32.507Z,61.00
2022-09-01T08:55:05.791Z,60.30
2022-09-01T08:57:38.651Z,60.30
2022-09-01T09:00:31.420Z,60.20
2022-09-01T09:03:22.456Z,60.30
2022-09-01T09:06:08.529Z,60.10
2022-09-01T09:08:57.837Z,59.70
2022-09-01T09:11:50.692Z,59.50
2022-09-01T09:14:40.322Z,59.50
2022-09-01T09:17:08.249Z,59.30
2022-09-01T09:19:41.057Z,59.30
2022-09-01T09:22:11.726Z,59.20
2022-09-01T09:24:50.586Z,59.10
2022-09-01T09:27:34.294Z,59.40
2022-09-01T09:30:26.694Z,59.10
2022-09-01T09:33:51.444Z,59.50
2022-09-01T09:36:25.307Z,59.70
2022-09-01T09:39:07.910Z,60.80
2022-09-01T09:41:36.221Z,61.40
2022-09-01T09:44:23.255Z,61.50
2022-09-01T09:46:50.750Z,61.50
2022-09-01T09:49:35.244Z,61.60
2022-09-01T09:52:17.812Z,59.80
2022-09-01T09:55:18.786Z,57.90
2022-09-01T09:57:46.361Z,56.00
2022-09-01T10:00:27.298Z,57.20
2022-09-01T10:02:57.687Z,56.40
2022-09-01T10:05:25.403Z,56.30
2022-09-01T10:07:53.352Z,54.80
2022-09-01T10:10:29.983Z,54.40
2022-09-01T10:12:59.420Z,54.50
2022-09-01T10:15:30.120Z,53.40
2022-09-01T10:18:20.602Z,55.20
2022-09-01T10:21:33.123Z,54.60
2022-09-01T10:24:20.372Z,54.20
2022-09-01T10:26:53.609Z,56.60
2022-09-01T10:29:27.938Z,55.40
2022-09-01T10:32:14.784Z,56.20
2022-09-01T10:34:42.649Z,55.50
2022-09-01T10:37:11.357Z,55.40
2022-09-01T10:40:20.538Z,55.60
2022-09-01T10:42:54.022Z,55.40
2022-09-01T10:45:24.332Z,54.80
2022-09-01T10:47:51.655Z,52.90
2022-09-01T10:50:28.755Z,51.90
2022-09-01T10:53:06.443Z,49.90
2022-09-01T10:55:45.412Z,51.50
2022-09-01T11:01:14.398Z,49.70
2022-09-01T11:08:14.953Z,46.60
2022-09-01T11:11:16.937Z,45.30
2022-09-01T11:13:51.012Z,47.40
2022-09-01T11:16:52.831Z,46.90
2022-09-01T11:19:35.104Z,46.60
2022-09-01T11:22:35.325Z,43.80
2022-09-01T11:25:26.689Z,44.20
2022-09-01T11:28:30.840Z,45.40
2022-09-01T11:31:00.775Z,44.00
2022-09-01T11:33:30.080Z,46.40
2022-09-01T11:36:03.284Z,46.20
2022-09-01T11:38:45.051Z,46.00
2022-09-01T11:41:24.259Z,45.70
2022-09-01T11:43:54.156Z,46.20
2022-09-01T11:46:25.153Z,47.20
2022-09-01T11:48:53.302Z,47.30
2022-09-01T11:51:21.557Z,47.60
2022-09-01T11:53:48.798Z,48.00
2022-09-01T11:56:20.656Z,48.20
2022-09-01T11:58:48.269Z,47.70
2022-09-01T12:01:35.602Z,47.10
2022-09-01T12:04:23.888Z,47.60
2022-09-01T12:07:21.608Z,45.20
2022-09-01T12:09:48.858Z,45.00
2022-09-01T12:12:51.453Z,45.00
2022-09-01T12:15:23.870Z,42.80
2022-09-01T12:17:51.896Z,43.30
2022-09-01T12:23:43.424Z,41.20
2022-09-01T12:26:14.310Z,42.00
2022-09-01T12:28:42.739Z,41.50
2022-09-01T12:31:18.755Z,40.40
2022-09-01T12:33:46.928Z,38.10
2022-09-01T12:36:28.505Z,38.50
2022-09-01T12:39:37.688Z,37.30
2022-09-01T12:42:24.348Z,37.20
2022-09-01T12:44:52.523Z,36.90
2022-09-01T12:47:49.955Z,37.80
2022-09-01T12:50:18.144Z,36.70
2022-09-01T12:52:55.887Z,38.00
2022-09-01T12:58:21.292Z,36.90
2022-09-01T13:01:07.067Z,36.30
2022-09-01T13:03:46.715Z,35.50
2022-09-01T13:06:14.716Z,36.60
2022-09-01T13:08:43.671Z,36.70
2022-09-01T13:11:13.912Z,36.60
2022-09-01T13:13:42.515Z,37.20
2022-09-01T13:16:14.154Z,37.40
2022-09-01T13:21:33.348Z,36.20
2022-09-01T13:24:05.345Z,35.40
2022-09-01T13:26:35.308Z,34.90
2022-09-01T13:29:02.891Z,34.90
2022-09-01T13:31:32.317Z,35.00
2022-09-01T13:34:22.588Z,35.00
2022-09-01T13:36:51.533Z,34.80
2022-09-01T13:39:20.264Z,36.90
2022-09-01T13:41:48.602Z,37.10
2022-09-01T13:44:18.926Z,37.40
2022-09-01T13:47:28.714Z,37.70
2022-09-01T13:50:05.326Z,38.00
2022-09-01T13:52:24.566Z,37.30
2022-09-01T13:54:52.439Z,37.90
2022-09-01T13:57:20.392Z,37.50
2022-09-01T13:59:47.543Z,37.70
2022-09-01T14:02:15.022Z,37.40
2022-09-01T14:04:42.294Z,38.20
2022-09-01T14:07:09.457Z,36.80
2022-09-01T14:09:36.830Z,35.50
2022-09-01T14:12:05.555Z,35.10
2022-09-01T14:17:21.036Z,33.50
2022-09-01T14:19:51.539Z,34.00
2022-09-01T14:22:18.949Z,32.30
2022-09-01T14:24:47.470Z,33.20
2022-09-01T14:27:17.310Z,33.40
2022-09-01T14:29:54.814Z,33.40
2022-09-01T14:32:27.289Z,33.40
2022-09-01T14:34:55.316Z,33.90
2022-09-01T14:37:23.778Z,33.70
2022-09-01T14:39:55.823Z,33.70
2022-09-01T14:42:25.885Z,33.10
2022-09-01T14:44:53.386Z,34.20
2022-09-01T14:47:23.890Z,34.80
2022-09-01T14:49:53.336Z,34.80
2022-09-01T14:52:22.208Z,35.20
2022-09-01T14:54:49.713Z,35.50
2022-09-01T14:57:37.710Z,35.00
2022-09-01T15:00:10.385Z,35.40
2022-09-01T15:02:42.408Z,35.20
2022-09-01T15:05:20.615Z,35.30
2022-09-01T15:07:50.204Z,35.50
2022-09-01T15:10:24.883Z,35.70
2022-09-01T15:12:57.641Z,35.60
2022-09-01T15:15:25.785Z,35.80
2022-09-01T15:17:56.313Z,35.80
2022-09-01T15:20:59.152Z,36.30
2022-09-01T15:23:26.694Z,36.10
2022-09-01T15:25:55.142Z,36.60
2022-09-01T15:28:23.026Z,36.40
2022-09-01T15:30:51.748Z,36.00
2022-09-01T15:33:22.075Z,35.40
2022-09-01T15:35:49.280Z,35.80
2022-09-01T15:38:17.743Z,35.30
2022-09-01T15:40:57.714Z,35.70
2022-09-01T15:43:26.776Z,35.90
2022-09-01T15:45:54.377Z,36.80
2022-09-01T15:48:25.034Z,36.00
2022-09-01T15:50:55.320Z,36.40
2022-09-01T15:53:23.645Z,37.00
2022-09-01T15:55:51.116Z,37.50
2022-09-01T15:58:19.261Z,37.80
2022-09-01T16:00:52.467Z,38.00
2022-09-01T16:03:19.862Z,38.60
2022-09-01T16:05:47.136Z,38.80
2022-09-01T16:08:14.273Z,39.10
2022-09-01T16:10:42.712Z,39.30
2022-09-01T16:13:14.905Z,39.40
2022-09-01T16:15:52.628Z,39.40
2022-09-01T16:19:06.592Z,39.50
2022-09-01T16:21:58.901Z,39.70
2022-09-01T16:24:26.047Z,40.20
2022-09-01T16:26:53.256Z,40.80
2022-09-01T16:29:33.075Z,41.80
2022-09-01T16:32:00.468Z,41.90
2022-09-01T16:34:28.620Z,41.80
2022-09-01T16:37:01.967Z,42.00
2022-09-01T16:39:39.363Z,42.10
2022-09-01T16:42:22.530Z,42.70
2022-09-01T16:44:52.874Z,42.60
2022-09-01T16:47:47.838Z,42.90
2022-09-01T16:50:18.438Z,44.10
2022-09-01T16:53:02.351Z,44.10
2022-09-01T16:55:52.610Z,44.70
2022-09-01T16:58:32.331Z,44.90
2022-09-01T17:01:05.889Z,45.50
2022-09-01T17:03:49.622Z,45.70
2022-09-01T17:06:37.016Z,44.80
2022-09-01T17:09:11.248Z,44.90
2022-09-01T17:12:20.162Z,45.10
2022-09-01T17:14:55.438Z,46.20
2022-09-01T17:17:29.405Z,45.70
2022-09-01T17:19:57.579Z,46.10
2022-09-01T17:22:28.570Z,46.40
2022-09-01T17:25:23.545Z,46.10
2022-09-01T17:28:23.543Z,46.50
2022-09-01T17:31:00.868Z,47.60
2022-09-01T17:33:53.514Z,47.10
2022-09-01T17:36:54.798Z,47.50
2022-09-01T17:39:49.544Z,48.70
2022-09-01T17:42:32.787Z,49.30
2022-09-01T17:45:15.619Z,50.20
2022-09-01T17:48:00.713Z,49.80
2022-09-01T17:50:31.608Z,50.50
2022-09-01T17:53:11.078Z,50.50
2022-09-01T17:56:29.600Z,50.60
2022-09-01T17:59:07.078Z,51.30
2022-09-01T18:01:58.735Z,50.80
2022-09-01T18:04:40.571Z,51.10
2022-09-01T18:07:27.033Z,51.20
2022-09-01T18:09:55.451Z,51.40
2022-09-01T18:12:27.720Z,50.60
2022-09-01T18:15:01.629Z,51.30
2022-09-01T18:17:33.912Z,51.70
2022-09-01T18:20:07.767Z,51.50
2022-09-01T18:23:10.613Z,52.00
2022-09-01T18:25:38.967Z,52.70
2022-09-01T18:28:06.109Z,52.70
2022-09-01T18:30:53.242Z,52.80
2022-09-01T18:33:59.477Z,53.50
2022-09-01T18:36:40.383Z,53.90
2022-09-01T18:39:22.074Z,53.50
2022-09-01T18:42:12.890Z,54.10
2022-09-01T18:45:10.330Z,54.40
2022-09-01T18:47:46.188Z,54.50
2022-09-01T18:50:22.495Z,54.10
2022-09-01T18:52:51.078Z,54.40
2022-09-01T18:55:34.615Z,54.50
2022-09-01T18:58:54.369Z,54.90
2022-09-01T19:01:34.211Z,55.60
2022-09-01T19:04:15.542Z,55.60
2022-09-01T19:06:48.709Z,56.20
2022-09-01T19:09:28.464Z,56.40
2022-09-01T19:11:55.555Z,56.30
2022-09-01T19:14:25.783Z,56.40
2022-09-01T19:17:11.387Z,56.60
2022-09-01T19:19:54.155Z,57.30
2022-09-01T19:22:24.353Z,57.40
2022-09-01T19:25:25.033Z,57.00
2022-09-01T19:28:05.102Z,57.40
2022-09-01T19:30:35.341Z,58.40
2022-09-01T19:33:04.108Z,58.30
2022-09-01T19:35:32.903Z,58.00
2022-09-01T19:38:05.950Z,57.80
2022-09-01T19:43:15.742Z,58.30
2022-09-01T19:45:59.069Z,58.50
2022-09-01T19:48:35.274Z,59.10
2022-09-01T19:51:17.906Z,58.60
2022-09-01T19:53:48.032Z,59.30
2022-09-01T19:56:30.060Z,58.60
2022-09-01T19:59:01.081Z,59.20
2022-09-01T20:02:00.454Z,59.30
2022-09-01T20:04:36.427Z,60.00
2022-09-01T20:07:03.973Z,59.60
2022-09-01T20:09:44.126Z,60.20
2022-09-01T20:12:17.518Z,60.00
2022-09-01T20:14:54.032Z,60.90
2022-09-01T20:17:48.534Z,60.70
2022-09-01T20:20:18.006Z,60.90
2022-09-01T20:23:08.229Z,60.70
2022-09-01T20:25:41.569Z,61.60
2022-09-01T20:28:25.977Z,62.30
2022-09-01T20:30:57.455Z,61.50
2022-09-01T20:33:34.807Z,62.10
2022-09-01T20:36:09.588Z,61.40
2022-09-01T20:39:37.392Z,62.90
2022-09-01T20:42:07.026Z,61.80
2022-09-01T20:44:44.814Z,62.10
2022-09-01T20:47:12.230Z,62.00
2022-09-01T20:49:39.683Z,61.90
2022-09-01T20:52:32.024Z,62.30
2022-09-01T20:55:14.202Z,62.40
2022-09-01T20:57:53.721Z,62.10
2022-09-01T21:00:30.447Z,62.90
2022-09-01T21:03:13.511Z,62.70
2022-09-01T21:06:07.662Z,62.90
2022-09-01T21:08:42.194Z,63.60
2022-09-01T21:11:18.651Z,62.60
2022-09-01T21:14:23.478Z,63.50
2022-09-01T21:17:09.987Z,63.90
2022-09-01T21:19:44.084Z,63.50
2022-09-01T21:22:13.143Z,64.80
2022-09-01T21:24:42.146Z,65.40
2022-09-01T21:27:18.434Z,66.20
2022-09-01T21:29:45.480Z,66.10
2022-09-01T21:32:13.965Z,67.80
2022-09-01T21:34:41.067Z,69.80
2022-09-01T21:37:08.108Z,70.10
2022-09-01T21:39:35.327Z,71.50
2022-09-01T21:42:03.123Z,70.80
2022-09-01T21:44:30.484Z,72.00
2022-09-01T21:46:57.908Z,73.10
2022-09-01T21:49:25.187Z,72.70
2022-09-01T21:51:52.387Z,73.90
2022-09-01T21:54:20.334Z,76.00
2022-09-01T21:56:48.641Z,76.60
2022-09-01T21:59:17.189Z,75.50
2022-09-01T22:01:44.479Z,76.30
2022-09-01T22:04:12.295Z,77.10
2022-09-01T22:06:39.817Z,78.00
2022-09-01T22:09:20.847Z,78.80
2022-09-01T22:11:49.796Z,80.30
2022-09-01T22:14:17.864Z,81.00
2022-09-01T22:16:45.085Z,81.70
2022-09-01T22:19:13.022Z,82.80
2022-09-01T22:21:40.249Z,81.50
2022-09-01T22:24:11.041Z,82.30
2022-09-01T22:26:38.394Z,82.20
2022-09-01T22:29:06.832Z,82.40
2022-09-01T22:31:35.716Z,82.40
2022-09-01T22:34:27.063Z,83.00
2022-09-01T22:36:54.393Z,84.50
2022-09-01T22:39:23.395Z,84.70
2022-09-01T22:41:52.915Z,86.10
2022-09-01T22:44:20.756Z,86.30
2022-09-01T22:46:47.892Z,85.50
2022-09-01T22:49:15.052Z,85.00
2022-09-01T22:51:44.813Z,85.70
2022-09-01T22:54:13.132Z,87.10
2022-09-01T22:56:41.410Z,85.80
2022-09-01T22:59:13.679Z,85.10
2022-09-01T23:01:43.890Z,85.20
2022-09-01T23:04:11.782Z,84.60
2022-09-01T23:06:45.216Z,84.70
2022-09-01T23:09:12.414Z,83.30
2022-09-01T23:11:39.627Z,82.90
2022-09-01T23:14:06.917Z,83.10
2022-09-01T23:16:34.171Z,83.10
2022-09-01T23:19:01.387Z,83.50
2022-09-01T23:21:31.199Z,84.00
2022-09-01T23:23:59.030Z,84.90
2022-09-01T23:26:27.029Z,85.40
2022-09-01T23:28:54.352Z,84.60
2022-09-01T23:31:23.431Z,85.10
2022-09-01T23:33:51.317Z,85.10
2022-09-01T23:36:20.023Z,84.80
2022-09-01T23:38:47.803Z,85.30
2022-09-01T23:41:31.796Z,85.10
2022-09-01T23:44:02.018Z,85.30
2022-09-01T23:46:38.518Z,85.30
2022-09-01T23:49:05.908Z,86.20
2022-09-01T23:51:33.293Z,85.40
2022-09-01T23:54:01.143Z,86.00
2022-09-01T23:56:29.018Z,85.10
2022-09-01T23:58:56.229Z,86.20
